createdAt,value
2023-02-23T00:00:45.268Z,53.50
2023-02-23T00:01:45.266Z,50.50
2023-02-23T00:02:45.361Z,53.10
2023-02-23T00:03:45.360Z,51.40
2023-02-23T00:04:45.250Z,52.20
2023-02-23T00:05:45.243Z,52.00
2023-02-23T00:06:45.418Z,54.80
2023-02-23T00:07:45.252Z,56.40
2023-02-23T00:08:45.235Z,55.60
2023-02-23T00:09:45.228Z,55.50
2023-02-23T00:10:45.225Z,52.80
2023-02-23T00:11:45.226Z,55.70
2023-02-23T00:12:45.223Z,53.90
2023-02-23T00:13:45.215Z,54.00
2023-02-23T00:14:45.230Z,53.70
2023-02-23T00:15:45.206Z,53.30
2023-02-23T00:16:45.247Z,54.80
2023-02-23T00:17:45.198Z,55.70
2023-02-23T00:18:45.298Z,56.80
2023-02-23T00:19:45.195Z,56.30
2023-02-23T00:20:45.188Z,54.30
2023-02-23T00:21:45.181Z,52.90
2023-02-23T00:22:45.180Z,52.00
2023-02-23T00:23:45.179Z,52.80
2023-02-23T00:24:45.172Z,54.00
2023-02-23T00:25:45.168Z,54.60
2023-02-23T00:26:45.165Z,51.10
2023-02-23T00:27:45.160Z,49.70
2023-02-23T00:28:45.165Z,54.20
2023-02-23T00:29:45.156Z,57.70
2023-02-23T00:30:45.217Z,57.20
2023-02-23T00:31:45.264Z,55.90
2023-02-23T00:32:45.205Z,59.20
2023-02-23T00:33:45.145Z,60.20
2023-02-23T00:34:45.144Z,60.20
2023-02-23T00:35:45.136Z,60.10
2023-02-23T00:36:45.136Z,59.90
2023-02-23T00:37:45.132Z,60.50
2023-02-23T00:38:45.130Z,57.20
2023-02-23T00:39:45.125Z,57.40
2023-02-23T00:40:45.123Z,55.50
2023-02-23T00:41:45.112Z,50.80
2023-02-23T00:42:45.114Z,53.40
2023-02-23T00:43:45.112Z,46.40
2023-02-23T00:44:45.104Z,51.20
2023-02-23T00:45:45.124Z,48.10
2023-02-23T00:46:45.119Z,51.50
2023-02-23T00:47:45.089Z,49.30
2023-02-23T00:48:45.094Z,50.50
2023-02-23T00:49:45.156Z,52.80
2023-02-23T00:50:45.081Z,57.60
2023-02-23T00:51:45.077Z,57.20
2023-02-23T00:52:45.186Z,57.50
2023-02-23T00:53:45.074Z,60.50
2023-02-23T00:54:45.067Z,59.10
2023-02-23T00:55:45.073Z,58.10
2023-02-23T00:56:45.063Z,58.20
2023-02-23T00:57:45.070Z,57.00
2023-02-23T00:58:45.051Z,56.10
2023-02-23T00:59:45.052Z,56.60
2023-02-23T01:00:45.046Z,53.30
2023-02-23T01:01:45.206Z,57.20
2023-02-23T01:02:45.100Z,58.60
2023-02-23T01:03:45.034Z,58.30
2023-02-23T01:04:45.027Z,58.90
2023-02-23T01:05:45.024Z,58.00
2023-02-23T01:06:45.018Z,59.10
2023-02-23T01:07:45.024Z,60.40
2023-02-23T01:08:45.025Z,58.50
2023-02-23T01:09:45.007Z,58.40
2023-02-23T01:10:44.998Z,60.60
2023-02-23T01:11:44.996Z,62.00
2023-02-23T01:12:44.990Z,60.50
2023-02-23T01:13:44.992Z,56.10
2023-02-23T01:14:44.984Z,52.30
2023-02-23T01:15:44.997Z,53.70
2023-02-23T01:16:44.980Z,56.20
2023-02-23T01:17:44.977Z,49.80
2023-02-23T01:18:45.047Z,50.90
2023-02-23T01:19:44.974Z,51.00
2023-02-23T01:20:44.964Z,52.60
2023-02-23T01:21:44.960Z,51.90
2023-02-23T01:22:44.953Z,49.70
2023-02-23T01:23:44.953Z,47.10
2023-02-23T01:24:44.940Z,48.40
2023-02-23T01:25:44.942Z,49.20
2023-02-23T01:26:44.946Z,51.20
2023-02-23T01:27:44.930Z,51.70
2023-02-23T01:28:44.925Z,52.30
2023-02-23T01:29:44.930Z,54.60
2023-02-23T01:30:44.981Z,54.60
2023-02-23T01:31:45.088Z,54.60
2023-02-23T01:32:44.924Z,56.00
2023-02-23T01:33:44.911Z,56.40
2023-02-23T01:34:44.919Z,54.90
2023-02-23T01:35:44.904Z,55.60
2023-02-23T01:36:44.915Z,57.40
2023-02-23T01:37:44.895Z,60.70
2023-02-23T01:38:44.889Z,59.30
2023-02-23T01:39:44.891Z,60.30
2023-02-23T01:40:44.887Z,61.80
2023-02-23T01:41:44.889Z,60.60
2023-02-23T01:42:44.883Z,59.00
2023-02-23T01:43:44.870Z,59.20
2023-02-23T01:44:44.873Z,55.50
2023-02-23T01:45:44.868Z,57.50
2023-02-23T01:46:44.860Z,54.60
2023-02-23T01:47:44.898Z,53.90
2023-02-23T01:48:44.850Z,53.30
2023-02-23T01:49:44.848Z,55.00
2023-02-23T01:50:44.862Z,53.80
2023-02-23T01:51:44.847Z,57.50
2023-02-23T01:52:44.835Z,56.80
2023-02-23T01:53:44.838Z,55.30
2023-02-23T01:54:44.826Z,54.30
2023-02-23T01:55:44.824Z,45.90
2023-02-23T01:56:44.827Z,47.70
2023-02-23T01:57:44.818Z,47.10
2023-02-23T01:58:44.812Z,48.70
2023-02-23T01:59:44.821Z,51.20
2023-02-23T02:00:47.422Z,48.40
2023-02-23T02:01:44.879Z,45.20
2023-02-23T02:02:44.797Z,46.10
2023-02-23T02:03:44.797Z,49.60
2023-02-23T02:04:45.105Z,51.50
2023-02-23T02:05:44.785Z,51.30
2023-02-23T02:06:44.933Z,51.30
2023-02-23T02:07:44.778Z,52.80
2023-02-23T02:08:44.773Z,53.50
2023-02-23T02:09:44.772Z,51.00
2023-02-23T02:10:44.771Z,52.00
2023-02-23T02:11:44.769Z,53.30
2023-02-23T02:12:44.758Z,52.80
2023-02-23T02:13:44.756Z,53.00
2023-02-23T02:14:44.751Z,51.70
2023-02-23T02:15:44.749Z,52.30
2023-02-23T02:16:44.746Z,53.00
2023-02-23T02:17:44.743Z,52.30
2023-02-23T02:18:44.736Z,54.90
2023-02-23T02:19:44.733Z,53.60
2023-02-23T02:20:44.726Z,54.80
2023-02-23T02:21:44.728Z,55.70
2023-02-23T02:22:44.740Z,55.60
2023-02-23T02:23:44.721Z,57.00
2023-02-23T02:24:44.774Z,59.00
2023-02-23T02:25:44.714Z,58.80
2023-02-23T02:26:44.707Z,60.20
2023-02-23T02:27:44.703Z,62.50
2023-02-23T02:28:44.702Z,62.50
2023-02-23T02:29:44.697Z,61.60
2023-02-23T02:30:44.765Z,63.80
2023-02-23T02:31:44.768Z,61.20
2023-02-23T02:32:44.682Z,60.00
2023-02-23T02:33:44.679Z,58.60
2023-02-23T02:34:44.675Z,59.60
2023-02-23T02:35:44.672Z,59.80
2023-02-23T02:36:44.666Z,61.00
2023-02-23T02:37:44.664Z,59.10
2023-02-23T02:38:44.711Z,57.30
2023-02-23T02:39:44.658Z,56.50
2023-02-23T02:40:44.651Z,55.80
2023-02-23T02:41:44.659Z,56.80
2023-02-23T02:42:44.643Z,57.80
2023-02-23T02:43:44.648Z,56.20
2023-02-23T02:44:44.633Z,57.30
2023-02-23T02:45:44.644Z,58.50
2023-02-23T02:46:44.630Z,61.30
2023-02-23T02:47:44.627Z,59.80
2023-02-23T02:48:44.620Z,60.50
2023-02-23T02:49:44.624Z,58.60
2023-02-23T02:50:44.616Z,60.10
2023-02-23T02:51:44.616Z,59.50
2023-02-23T02:52:44.610Z,58.50
2023-02-23T02:53:44.608Z,59.20
2023-02-23T02:54:44.648Z,61.30
2023-02-23T02:55:44.597Z,61.30
2023-02-23T02:56:44.596Z,62.80
2023-02-23T02:57:44.594Z,61.90
2023-02-23T02:58:44.587Z,62.00
2023-02-23T02:59:44.584Z,65.00
2023-02-23T03:00:44.580Z,63.00
2023-02-23T03:01:44.639Z,63.20
2023-02-23T03:02:44.571Z,62.60
2023-02-23T03:03:44.570Z,60.80
2023-02-23T03:04:44.691Z,59.10
2023-02-23T03:05:44.562Z,58.90
2023-02-23T03:06:44.563Z,61.00
2023-02-23T03:07:44.555Z,58.70
2023-02-23T03:08:44.554Z,57.70
2023-02-23T03:09:44.626Z,58.30
2023-02-23T03:10:44.557Z,59.80
2023-02-23T03:11:44.540Z,57.00
2023-02-23T03:12:44.531Z,59.50
2023-02-23T03:13:44.534Z,58.40
2023-02-23T03:14:44.526Z,60.50
2023-02-23T03:15:44.549Z,57.90
2023-02-23T03:16:44.520Z,61.80
2023-02-23T03:17:44.517Z,59.70
2023-02-23T03:18:44.516Z,62.50
2023-02-23T03:19:44.508Z,63.10
2023-02-23T03:20:44.509Z,63.80
2023-02-23T03:21:44.505Z,64.60
2023-02-23T03:22:44.497Z,63.00
2023-02-23T03:23:44.491Z,63.90
2023-02-23T03:24:44.502Z,61.50
2023-02-23T03:25:44.486Z,57.90
2023-02-23T03:26:44.541Z,60.50
2023-02-23T03:27:44.476Z,61.30
2023-02-23T03:28:44.474Z,61.50
2023-02-23T03:29:44.471Z,60.20
2023-02-23T03:30:44.514Z,61.20
2023-02-23T03:31:44.602Z,60.60
2023-02-23T03:32:44.460Z,59.10
2023-02-23T03:33:44.466Z,58.00
2023-02-23T03:34:44.460Z,59.50
2023-02-23T03:35:44.458Z,60.70
2023-02-23T03:36:44.641Z,61.80
2023-02-23T03:37:44.443Z,60.80
2023-02-23T03:38:44.437Z,62.60
2023-02-23T03:39:44.434Z,60.00
2023-02-23T03:40:44.437Z,59.00
2023-02-23T03:41:44.425Z,59.10
2023-02-23T03:42:44.437Z,61.00
2023-02-23T03:43:44.419Z,60.10
2023-02-23T03:44:44.422Z,60.20
2023-02-23T03:45:44.473Z,59.50
2023-02-23T03:46:44.416Z,62.00
2023-02-23T03:47:44.402Z,62.40
2023-02-23T03:48:44.407Z,64.10
2023-02-23T03:49:44.392Z,62.50
2023-02-23T03:50:44.389Z,63.70
2023-02-23T03:51:44.384Z,65.70
2023-02-23T03:52:44.378Z,68.70
2023-02-23T03:53:44.375Z,64.70
2023-02-23T03:54:44.371Z,65.60
2023-02-23T03:55:44.366Z,65.10
2023-02-23T03:56:44.377Z,64.80
2023-02-23T03:57:44.361Z,67.20
2023-02-23T03:58:44.386Z,64.80
2023-02-23T03:59:44.355Z,68.10
2023-02-23T04:00:44.358Z,70.80
2023-02-23T04:01:44.386Z,69.70
2023-02-23T04:02:44.338Z,70.70
2023-02-23T04:03:44.371Z,68.70
2023-02-23T04:04:44.332Z,69.90
2023-02-23T04:05:44.326Z,68.30
2023-02-23T04:06:44.327Z,72.00
2023-02-23T04:07:44.321Z,68.70
2023-02-23T04:08:44.333Z,78.20
2023-02-23T04:09:44.313Z,85.00
2023-02-23T04:10:44.303Z,85.70
2023-02-23T04:11:44.304Z,85.30
2023-02-23T04:12:44.297Z,87.30
2023-02-23T04:13:44.296Z,88.70
2023-02-23T04:14:44.306Z,86.80
2023-02-23T04:15:44.286Z,91.80
2023-02-23T04:16:44.337Z,93.00
2023-02-23T04:17:44.282Z,90.20
2023-02-23T04:18:44.283Z,87.90
2023-02-23T04:19:44.291Z,96.80
2023-02-23T04:20:44.308Z,90.60
2023-02-23T04:21:44.272Z,92.30
2023-02-23T04:22:44.267Z,94.60
2023-02-23T04:23:44.266Z,97.50
2023-02-23T04:24:44.251Z,91.30
2023-02-23T04:25:44.253Z,94.90
2023-02-23T04:26:44.244Z,88.40
2023-02-23T04:27:44.247Z,93.40
2023-02-23T04:28:44.233Z,87.40
2023-02-23T04:29:44.231Z,93.70
2023-02-23T04:30:44.289Z,93.20
2023-02-23T04:31:44.380Z,87.70
2023-02-23T04:32:44.369Z,81.60
2023-02-23T04:33:44.217Z,89.00
2023-02-23T04:34:44.214Z,91.90
2023-02-23T04:35:44.209Z,88.30
2023-02-23T04:36:44.457Z,85.80
2023-02-23T04:37:44.204Z,89.00
2023-02-23T04:38:44.198Z,84.90
2023-02-23T04:39:44.196Z,79.90
2023-02-23T04:40:44.189Z,82.90
2023-02-23T04:41:44.186Z,75.80
2023-02-23T04:42:44.182Z,73.30
2023-02-23T04:43:44.178Z,87.60
2023-02-23T04:44:44.175Z,89.80
2023-02-23T04:45:44.260Z,79.90
2023-02-23T04:46:44.185Z,73.20
2023-02-23T04:47:44.181Z,79.00
2023-02-23T04:48:44.158Z,82.10
2023-02-23T04:49:44.154Z,80.30
2023-02-23T04:50:44.148Z,82.70
2023-02-23T04:51:44.149Z,79.60
2023-02-23T04:52:44.146Z,90.00
2023-02-23T04:53:44.142Z,90.00
2023-02-23T04:54:44.137Z,94.00
2023-02-23T04:55:45.526Z,93.60
2023-02-23T04:56:44.128Z,97.20
2023-02-23T04:57:44.124Z,91.70
2023-02-23T04:58:44.126Z,77.10
2023-02-23T04:59:44.125Z,77.30
2023-02-23T05:00:44.112Z,75.90
2023-02-23T05:01:44.139Z,72.90
2023-02-23T05:02:44.124Z,69.70
2023-02-23T05:03:44.100Z,68.40
2023-02-23T05:04:44.116Z,63.40
2023-02-23T05:05:44.094Z,71.90
2023-02-23T05:06:44.091Z,69.00
2023-02-23T05:07:44.095Z,69.00
2023-02-23T05:08:44.082Z,69.80
2023-02-23T05:09:44.083Z,66.00
2023-02-23T05:10:44.082Z,61.40
2023-02-23T05:11:44.071Z,66.90
2023-02-23T05:12:44.093Z,58.30
2023-02-23T05:13:44.061Z,52.90
2023-02-23T05:14:44.056Z,55.10
2023-02-23T05:15:44.065Z,60.40
2023-02-23T05:16:44.053Z,61.10
2023-02-23T05:17:44.047Z,68.00
2023-02-23T05:18:44.064Z,71.20
2023-02-23T05:19:44.045Z,69.10
2023-02-23T05:20:44.034Z,71.00
2023-02-23T05:21:44.030Z,65.60
2023-02-23T05:22:44.035Z,71.40
2023-02-23T05:23:44.028Z,74.90
2023-02-23T05:24:44.025Z,65.20
2023-02-23T05:25:44.019Z,67.50
2023-02-23T05:26:44.016Z,72.00
2023-02-23T05:27:44.006Z,73.00
2023-02-23T05:28:44.004Z,75.70
2023-02-23T05:29:43.999Z,70.40
2023-02-23T05:30:44.084Z,67.40
2023-02-23T05:31:44.102Z,66.40
2023-02-23T05:32:43.993Z,68.80
2023-02-23T05:33:43.991Z,67.10
2023-02-23T05:34:44.004Z,71.50
2023-02-23T05:35:43.974Z,64.80
2023-02-23T05:36:43.972Z,70.00
2023-02-23T05:37:43.971Z,74.60
2023-02-23T05:38:43.966Z,71.00
2023-02-23T05:39:43.986Z,68.80
2023-02-23T05:40:43.958Z,70.60
2023-02-23T05:41:43.947Z,79.70
2023-02-23T05:42:43.944Z,72.90
2023-02-23T05:43:43.942Z,70.90
2023-02-23T05:44:43.938Z,72.00
2023-02-23T05:45:43.929Z,71.20
2023-02-23T05:46:43.930Z,69.30
2023-02-23T05:47:43.929Z,75.70
2023-02-23T05:48:43.923Z,75.20
2023-02-23T05:49:43.914Z,83.00
2023-02-23T05:50:44.029Z,88.30
2023-02-23T05:51:43.905Z,84.80
2023-02-23T05:52:43.905Z,90.70
2023-02-23T05:53:43.909Z,85.00
2023-02-23T05:54:43.894Z,85.90
2023-02-23T05:55:43.907Z,86.50
2023-02-23T05:56:43.888Z,86.80
2023-02-23T05:57:43.904Z,88.80
2023-02-23T05:58:43.880Z,84.10
2023-02-23T05:59:43.875Z,83.60
2023-02-23T06:00:43.877Z,91.60
2023-02-23T06:01:43.871Z,84.00
2023-02-23T06:02:43.898Z,87.00
2023-02-23T06:03:43.883Z,80.80
2023-02-23T06:04:43.859Z,75.40
2023-02-23T06:05:43.861Z,75.90
2023-02-23T06:06:43.880Z,79.60
2023-02-23T06:07:43.849Z,84.70
2023-02-23T06:08:43.845Z,90.60
2023-02-23T06:09:44.672Z,88.20
2023-02-23T06:10:43.836Z,90.00
2023-02-23T06:11:43.833Z,88.10
2023-02-23T06:12:43.830Z,91.50
2023-02-23T06:13:43.824Z,93.00
2023-02-23T06:14:43.820Z,91.30
2023-02-23T06:15:43.933Z,88.80
2023-02-23T06:16:43.876Z,82.80
2023-02-23T06:17:43.810Z,79.70
2023-02-23T06:18:43.804Z,81.90
2023-02-23T06:19:43.796Z,82.60
2023-02-23T06:20:43.795Z,84.90
2023-02-23T06:21:43.789Z,84.90
2023-02-23T06:22:43.812Z,79.70
2023-02-23T06:23:43.785Z,78.50
2023-02-23T06:24:43.781Z,83.80
2023-02-23T06:25:43.780Z,85.40
2023-02-23T06:26:44.572Z,80.70
2023-02-23T06:27:43.766Z,83.20
2023-02-23T06:28:43.771Z,79.10
2023-02-23T06:29:43.761Z,82.30
2023-02-23T06:30:43.782Z,85.60
2023-02-23T06:31:43.829Z,83.50
2023-02-23T06:32:43.745Z,79.50
2023-02-23T06:33:43.744Z,76.50
2023-02-23T06:34:43.754Z,80.10
2023-02-23T06:35:43.735Z,74.10
2023-02-23T06:36:43.735Z,74.70
2023-02-23T06:37:43.730Z,78.80
2023-02-23T06:38:43.748Z,79.50
2023-02-23T06:39:43.716Z,78.20
2023-02-23T06:40:43.729Z,84.20
2023-02-23T06:41:43.708Z,82.80
2023-02-23T06:42:43.709Z,79.60
2023-02-23T06:43:43.704Z,79.90
2023-02-23T06:44:43.699Z,74.60
2023-02-23T06:45:43.695Z,79.00
2023-02-23T06:46:43.750Z,79.20
2023-02-23T06:47:43.699Z,80.00
2023-02-23T06:48:43.696Z,81.20
2023-02-23T06:49:43.679Z,84.50
2023-02-23T06:50:43.673Z,79.20
2023-02-23T06:51:43.668Z,81.30
2023-02-23T06:52:43.667Z,79.10
2023-02-23T06:53:43.659Z,84.90
2023-02-23T06:54:43.681Z,84.50
2023-02-23T06:55:43.653Z,84.20
2023-02-23T06:56:43.652Z,80.60
2023-02-23T06:57:43.646Z,86.20
2023-02-23T06:58:43.641Z,85.20
2023-02-23T06:59:43.641Z,88.40
2023-02-23T07:00:43.647Z,89.40
2023-02-23T07:01:43.674Z,95.00
2023-02-23T07:02:43.624Z,88.80
2023-02-23T07:03:43.637Z,86.60
2023-02-23T07:04:43.616Z,86.20
2023-02-23T07:05:43.792Z,84.20
2023-02-23T07:06:43.611Z,84.30
2023-02-23T07:07:43.611Z,81.60
2023-02-23T07:08:43.604Z,87.90
2023-02-23T07:09:43.594Z,86.90
2023-02-23T07:10:43.613Z,85.20
2023-02-23T07:11:43.597Z,88.40
2023-02-23T07:12:43.585Z,85.90
2023-02-23T07:13:43.578Z,82.60
2023-02-23T07:14:43.575Z,85.70
2023-02-23T07:15:43.570Z,85.30
2023-02-23T07:16:43.564Z,86.10
2023-02-23T07:17:43.559Z,87.10
2023-02-23T07:18:43.559Z,85.10
2023-02-23T07:19:43.549Z,87.00
2023-02-23T07:20:43.551Z,88.70
2023-02-23T07:21:43.546Z,86.60
2023-02-23T07:22:43.539Z,88.00
2023-02-23T07:23:43.533Z,84.60
2023-02-23T07:24:43.540Z,89.50
2023-02-23T07:25:43.531Z,87.00
2023-02-23T07:26:43.681Z,85.90
2023-02-23T07:27:43.518Z,80.70
2023-02-23T07:28:43.516Z,79.60
2023-02-23T07:29:43.527Z,78.40
2023-02-23T07:30:43.528Z,87.50
2023-02-23T07:31:43.637Z,88.80
2023-02-23T07:32:43.550Z,87.10
2023-02-23T07:33:43.497Z,83.60
2023-02-23T07:34:43.489Z,87.90
2023-02-23T07:35:43.489Z,86.30
2023-02-23T07:36:43.481Z,87.30
2023-02-23T07:37:43.481Z,90.70
2023-02-23T07:38:43.477Z,92.50
2023-02-23T07:39:43.472Z,95.30
2023-02-23T07:40:43.474Z,92.60
2023-02-23T07:41:43.817Z,97.40
2023-02-23T07:42:43.488Z,101.60
2023-02-23T07:43:43.467Z,103.00
2023-02-23T07:44:43.456Z,104.20
2023-02-23T07:45:45.596Z,105.40
2023-02-23T07:46:43.453Z,103.70
2023-02-23T07:47:43.443Z,110.60
2023-02-23T07:48:43.439Z,109.90
2023-02-23T07:49:43.433Z,109.60
2023-02-23T07:50:43.440Z,113.10
2023-02-23T07:51:43.430Z,111.60
2023-02-23T07:52:43.426Z,111.30
2023-02-23T07:53:43.422Z,108.50
2023-02-23T07:54:43.417Z,116.20
2023-02-23T07:55:43.423Z,116.90
2023-02-23T07:56:43.414Z,117.60
2023-02-23T07:57:43.403Z,113.80
2023-02-23T07:58:43.480Z,112.60
2023-02-23T07:59:43.404Z,111.40
2023-02-23T08:00:43.396Z,113.50
2023-02-23T08:01:43.389Z,110.10
2023-02-23T08:02:43.399Z,115.60
2023-02-23T08:03:43.383Z,111.30
2023-02-23T08:04:43.380Z,113.90
2023-02-23T08:05:43.375Z,112.10
2023-02-23T08:06:43.376Z,114.80
2023-02-23T08:07:43.366Z,113.10
2023-02-23T08:08:43.369Z,114.60
2023-02-23T08:09:43.367Z,107.30
2023-02-23T08:10:43.355Z,110.80
2023-02-23T08:11:43.346Z,115.10
2023-02-23T08:12:43.434Z,111.60
2023-02-23T08:13:43.355Z,109.70
2023-02-23T08:14:43.364Z,109.70
2023-02-23T08:15:43.331Z,110.80
2023-02-23T08:16:43.396Z,113.20
2023-02-23T08:17:43.321Z,111.10
2023-02-23T08:18:43.383Z,108.00
2023-02-23T08:19:43.315Z,112.20
2023-02-23T08:20:43.311Z,112.20
2023-02-23T08:21:43.304Z,112.40
2023-02-23T08:22:49.805Z,109.20
2023-02-23T08:23:43.297Z,112.60
2023-02-23T08:24:43.293Z,109.20
2023-02-23T08:25:43.288Z,113.90
2023-02-23T08:26:43.289Z,110.50
2023-02-23T08:27:43.282Z,108.40
2023-02-23T08:28:43.281Z,105.70
2023-02-23T08:29:43.273Z,107.40
2023-02-23T08:30:43.428Z,103.60
2023-02-23T08:31:43.403Z,102.60
2023-02-23T08:32:43.261Z,106.80
2023-02-23T08:33:43.296Z,104.10
2023-02-23T08:34:43.261Z,104.00
2023-02-23T08:35:43.252Z,104.50
2023-02-23T08:36:45.651Z,100.60
2023-02-23T08:37:43.240Z,98.10
2023-02-23T08:38:43.242Z,98.50
2023-02-23T08:39:43.681Z,101.40
2023-02-23T08:40:43.268Z,99.50
2023-02-23T08:41:43.227Z,100.30
2023-02-23T08:42:43.223Z,96.20
2023-02-23T08:43:44.136Z,99.80
2023-02-23T08:44:43.227Z,98.30
2023-02-23T08:45:43.207Z,96.80
2023-02-23T08:46:43.256Z,94.90
2023-02-23T08:47:43.202Z,93.20
2023-02-23T08:48:43.198Z,98.50
2023-02-23T08:49:43.194Z,96.20
2023-02-23T08:50:43.197Z,95.70
2023-02-23T08:51:43.186Z,92.90
2023-02-23T08:52:43.176Z,94.40
2023-02-23T08:53:43.175Z,96.80
2023-02-23T08:54:43.178Z,91.30
2023-02-23T08:55:43.166Z,91.50
2023-02-23T08:56:43.164Z,90.90
2023-02-23T08:57:43.160Z,90.40
2023-02-23T08:58:43.156Z,96.00
2023-02-23T08:59:43.151Z,91.20
2023-02-23T09:00:43.147Z,90.10
2023-02-23T09:01:43.258Z,95.10
2023-02-23T09:02:43.162Z,95.10
2023-02-23T09:03:43.130Z,95.70
2023-02-23T09:04:43.156Z,94.30
2023-02-23T09:05:43.157Z,105.60
2023-02-23T09:06:43.121Z,103.60
2023-02-23T09:07:43.113Z,105.90
2023-02-23T09:08:43.125Z,107.60
2023-02-23T09:09:43.121Z,111.80
2023-02-23T09:10:43.110Z,117.80
2023-02-23T09:11:43.101Z,113.90
2023-02-23T09:12:43.106Z,113.20
2023-02-23T09:13:43.101Z,115.90
2023-02-23T09:14:43.087Z,118.90
2023-02-23T09:15:43.129Z,117.70
2023-02-23T09:16:43.077Z,121.80
2023-02-23T09:17:43.081Z,122.00
2023-02-23T09:18:43.103Z,129.50
2023-02-23T09:19:43.065Z,124.30
2023-02-23T09:20:43.064Z,120.90
2023-02-23T09:21:43.055Z,123.20
2023-02-23T09:22:43.057Z,124.80
2023-02-23T09:23:43.049Z,125.80
2023-02-23T09:24:43.071Z,123.50
2023-02-23T09:25:43.041Z,123.80
2023-02-23T09:26:45.581Z,124.70
2023-02-23T09:27:43.041Z,137.80
2023-02-23T09:28:43.031Z,138.20
2023-02-23T09:29:43.032Z,147.70
2023-02-23T09:30:43.046Z,140.80
2023-02-23T09:31:43.209Z,158.20
2023-02-23T09:32:43.048Z,161.60
2023-02-23T09:33:43.018Z,155.70
2023-02-23T09:34:43.030Z,166.00
2023-02-23T09:35:43.004Z,171.70
2023-02-23T09:36:43.001Z,170.30
2023-02-23T09:37:42.995Z,169.30
2023-02-23T09:38:42.991Z,162.00
2023-02-23T09:39:43.000Z,164.80
2023-02-23T09:40:42.980Z,175.40
2023-02-23T09:41:42.974Z,170.10
2023-02-23T09:42:42.967Z,169.80
2023-02-23T09:43:42.969Z,173.50
2023-02-23T09:44:42.960Z,168.10
2023-02-23T09:45:42.960Z,168.30
2023-02-23T09:46:42.974Z,167.00
2023-02-23T09:47:42.963Z,174.80
2023-02-23T09:48:42.948Z,177.60
2023-02-23T09:49:42.941Z,172.40
2023-02-23T09:50:42.959Z,178.70
2023-02-23T09:51:42.934Z,168.70
2023-02-23T09:52:42.933Z,165.80
2023-02-23T09:53:43.396Z,170.30
2023-02-23T09:54:42.922Z,167.00
2023-02-23T09:55:42.918Z,172.50
2023-02-23T09:56:42.920Z,161.90
2023-02-23T09:57:42.934Z,163.60
2023-02-23T09:58:42.909Z,160.80
2023-02-23T09:59:42.904Z,156.30
2023-02-23T10:00:42.896Z,164.40
2023-02-23T10:01:43.027Z,163.90
2023-02-23T10:02:42.890Z,158.80
2023-02-23T10:03:42.893Z,151.30
2023-02-23T10:04:42.916Z,155.70
2023-02-23T10:05:42.880Z,149.20
2023-02-23T10:06:42.891Z,147.80
2023-02-23T10:07:42.874Z,147.70
2023-02-23T10:08:42.876Z,155.70
2023-02-23T10:09:42.865Z,146.30
2023-02-23T10:10:42.869Z,140.50
2023-02-23T10:11:42.856Z,138.20
2023-02-23T10:12:42.865Z,140.60
2023-02-23T10:13:42.847Z,140.00
2023-02-23T10:14:42.843Z,146.30
2023-02-23T10:15:42.864Z,142.60
2023-02-23T10:16:42.833Z,146.40
2023-02-23T10:17:42.835Z,139.10
2023-02-23T10:18:47.086Z,141.00
2023-02-23T10:19:42.829Z,136.30
2023-02-23T10:20:42.820Z,135.90
2023-02-23T10:21:42.820Z,140.40
2023-02-23T10:22:42.886Z,130.40
2023-02-23T10:23:42.814Z,125.70
2023-02-23T10:24:42.814Z,124.10
2023-02-23T10:25:42.801Z,123.60
2023-02-23T10:26:42.793Z,123.90
2023-02-23T10:27:42.797Z,125.60
2023-02-23T10:28:42.787Z,123.70
2023-02-23T10:29:42.784Z,128.10
2023-02-23T10:30:42.818Z,126.00
2023-02-23T10:31:42.936Z,122.70
2023-02-23T10:32:42.854Z,124.00
2023-02-23T10:33:42.768Z,125.30
2023-02-23T10:34:42.765Z,126.10
2023-02-23T10:35:42.763Z,128.70
2023-02-23T10:36:42.754Z,121.20
2023-02-23T10:37:42.751Z,124.30
2023-02-23T10:38:42.791Z,126.60
2023-02-23T10:39:42.763Z,123.80
2023-02-23T10:40:42.736Z,121.20
2023-02-23T10:41:42.736Z,122.80
2023-02-23T10:42:42.732Z,123.40
2023-02-23T10:43:42.727Z,120.90
2023-02-23T10:44:42.721Z,122.60
2023-02-23T10:45:42.721Z,123.20
2023-02-23T10:46:42.847Z,114.90
2023-02-23T10:47:42.710Z,119.40
2023-02-23T10:48:42.941Z,114.10
2023-02-23T10:49:42.714Z,113.50
2023-02-23T10:50:42.696Z,114.10
2023-02-23T10:51:42.693Z,111.70
2023-02-23T10:52:42.705Z,115.70
2023-02-23T10:53:42.684Z,116.20
2023-02-23T10:54:42.706Z,118.70
2023-02-23T10:55:42.676Z,117.60
2023-02-23T10:56:42.672Z,117.50
2023-02-23T10:57:42.775Z,117.90
2023-02-23T10:58:42.666Z,114.80
2023-02-23T10:59:42.664Z,116.10
2023-02-23T11:00:42.654Z,117.60
2023-02-23T11:01:55.457Z,118.70
2023-02-23T11:02:42.670Z,114.90
2023-02-23T11:03:43.207Z,117.50
2023-02-23T11:04:42.681Z,116.50
2023-02-23T11:05:42.642Z,112.40
2023-02-23T11:06:42.636Z,114.00
2023-02-23T11:07:42.626Z,112.60
2023-02-23T11:08:42.619Z,112.20
2023-02-23T11:09:47.527Z,107.10
2023-02-23T11:10:42.637Z,107.10
2023-02-23T11:11:42.607Z,102.90
2023-02-23T11:12:42.607Z,107.00
2023-02-23T11:13:42.604Z,104.60
2023-02-23T11:14:42.721Z,107.00
2023-02-23T11:15:50.405Z,104.20
2023-02-23T11:16:42.660Z,106.20
2023-02-23T11:17:42.582Z,102.30
2023-02-23T11:18:42.576Z,102.80
2023-02-23T11:19:42.577Z,104.40
2023-02-23T11:20:42.565Z,103.10
2023-02-23T11:21:42.564Z,101.10
2023-02-23T11:22:42.555Z,97.60
2023-02-23T11:23:42.559Z,98.80
2023-02-23T11:24:42.557Z,99.90
2023-02-23T11:25:42.546Z,101.90
2023-02-23T11:26:42.681Z,99.40
2023-02-23T11:27:42.538Z,95.50
2023-02-23T11:28:42.541Z,98.30
2023-02-23T11:29:42.527Z,101.00
2023-02-23T11:30:42.568Z,99.00
2023-02-23T11:31:42.627Z,101.00
2023-02-23T11:32:42.662Z,96.80
2023-02-23T11:33:42.512Z,94.20
2023-02-23T11:34:42.512Z,94.00
2023-02-23T11:35:42.508Z,93.00
2023-02-23T11:36:42.497Z,94.30
2023-02-23T11:37:42.495Z,91.40
2023-02-23T11:38:42.485Z,90.50
2023-02-23T11:39:42.490Z,94.20
2023-02-23T11:40:42.478Z,91.20
2023-02-23T11:41:42.481Z,91.40
2023-02-23T11:42:42.505Z,87.40
2023-02-23T11:43:42.475Z,84.10
2023-02-23T11:44:42.465Z,80.20
2023-02-23T11:45:43.846Z,84.40
2023-02-23T11:46:42.509Z,88.50
2023-02-23T11:47:42.453Z,85.90
2023-02-23T11:48:42.644Z,83.20
2023-02-23T11:49:42.459Z,81.20
2023-02-23T11:50:42.441Z,80.40
2023-02-23T11:51:42.436Z,77.60
2023-02-23T11:52:42.429Z,81.00
2023-02-23T11:53:42.424Z,84.90
2023-02-23T11:54:42.420Z,83.20
2023-02-23T11:55:42.422Z,87.20
2023-02-23T11:56:42.413Z,83.40
2023-02-23T11:57:42.410Z,82.80
2023-02-23T11:58:42.473Z,82.40
2023-02-23T11:59:42.416Z,82.20
2023-02-23T12:00:42.398Z,76.70
2023-02-23T12:01:42.403Z,75.90
2023-02-23T12:02:42.457Z,76.20
2023-02-23T12:03:42.400Z,80.20
2023-02-23T12:04:42.410Z,76.00
2023-02-23T12:05:42.376Z,75.30
2023-02-23T12:06:42.407Z,74.90
2023-02-23T12:07:42.391Z,71.80
2023-02-23T12:08:42.364Z,69.70
2023-02-23T12:09:42.358Z,71.90
2023-02-23T12:10:42.450Z,69.10
2023-02-23T12:11:42.353Z,69.60
2023-02-23T12:12:42.364Z,68.90
2023-02-23T12:13:42.344Z,65.10
2023-02-23T12:14:42.414Z,66.30
2023-02-23T12:15:42.336Z,67.60
2023-02-23T12:16:42.364Z,62.30
2023-02-23T12:17:42.329Z,62.40
2023-02-23T12:18:42.364Z,62.80
2023-02-23T12:19:42.320Z,63.90
2023-02-23T12:20:42.315Z,63.50
2023-02-23T12:21:42.317Z,61.90
2023-02-23T12:22:42.311Z,63.20
2023-02-23T12:23:42.301Z,61.30
2023-02-23T12:24:42.295Z,59.10
2023-02-23T12:25:42.294Z,61.30
2023-02-23T12:26:42.287Z,62.00
2023-02-23T12:27:42.284Z,64.20
2023-02-23T12:28:42.286Z,64.90
2023-02-23T12:29:42.276Z,68.50
2023-02-23T12:30:42.317Z,62.30
2023-02-23T12:31:42.348Z,65.60
2023-02-23T12:32:42.258Z,66.20
2023-02-23T12:33:42.255Z,61.30
2023-02-23T12:34:42.256Z,61.80
2023-02-23T12:35:42.250Z,61.40
2023-02-23T12:36:42.241Z,59.50
2023-02-23T12:37:42.234Z,58.70
2023-02-23T12:38:42.228Z,62.10
2023-02-23T12:39:42.227Z,55.00
2023-02-23T12:40:42.234Z,55.50
2023-02-23T12:41:42.215Z,54.50
2023-02-23T12:42:42.212Z,56.60
2023-02-23T12:43:42.211Z,57.00
2023-02-23T12:44:42.201Z,56.80
2023-02-23T12:45:42.220Z,59.40
2023-02-23T12:46:42.211Z,58.90